sensor_id;sensor_type;location;lat;lon;timestamp;P1;durP1;ratioP1;P2;durP2;ratioP2
19262;SDS011;9765;52.354;20.884;2022-09-09T06:23:45;3.80;;;2.80;;
19262;SDS011;9765;52.354;20.884;2022-09-09T06:26:13;3.43;;;3.10;;
19262;SDS011;9765;52.354;20.884;2022-09-09T06:28:42;5.70;;;3.23;;
19262;SDS011;9765;52.354;20.884;2022-09-09T06:31:09;5.63;;;2.87;;
19262;SDS011;9765;52.354;20.884;2022-09-09T06:33:38;4.73;;;3.23;;
19262;SDS011;9765;52.354;20.884;2022-09-09T06:36:06;4.23;;;3.70;;
19262;SDS011;9765;52.354;20.884;2022-09-09T06:38:36;6.20;;;3.73;;
19262;SDS011;9765;52.354;20.884;2022-09-09T06:41:04;5.63;;;3.77;;
19262;SDS011;9765;52.354;20.884;2022-09-09T06:43:31;5.03;;;3.67;;
19262;SDS011;9765;52.354;20.884;2022-09-09T06:46:01;7.80;;;4.17;;
19262;SDS011;9765;52.354;20.884;2022-09-09T06:48:30;6.67;;;4.23;;
19262;SDS011;9765;52.354;20.884;2022-09-09T06:51:01;7.67;;;4.70;;
19262;SDS011;9765;52.354;20.884;2022-09-09T06:53:28;9.13;;;4.90;;
19262;SDS011;9765;52.354;20.884;2022-09-09T06:55:55;8.97;;;5.17;;
19262;SDS011;9765;52.354;20.884;2022-09-09T06:58:23;9.00;;;5.23;;
19262;SDS011;9765;52.354;20.884;2022-09-09T07:00:49;8.07;;;4.60;;
19262;SDS011;9765;52.354;20.884;2022-09-09T07:03:16;6.50;;;4.00;;
19262;SDS011;9765;52.354;20.884;2022-09-09T07:05:43;9.13;;;5.00;;
19262;SDS011;9765;52.354;20.884;2022-09-09T07:08:19;8.40;;;5.07;;
19262;SDS011;9765;52.354;20.884;2022-09-09T07:10:45;7.23;;;4.33;;
19262;SDS011;9765;52.354;20.884;2022-09-09T07:13:13;10.13;;;4.83;;
19262;SDS011;9765;52.354;20.884;2022-09-09T07:15:41;12.77;;;5.77;;
19262;SDS011;9765;52.354;20.884;2022-09-09T07:18:08;9.67;;;5.10;;
19262;SDS011;9765;52.354;20.884;2022-09-09T07:20:35;10.67;;;5.90;;
19262;SDS011;9765;52.354;20.884;2022-09-09T07:23:02;9.13;;;5.30;;
19262;SDS011;9765;52.354;20.884;2022-09-09T07:25:30;9.73;;;5.63;;
19262;SDS011;9765;52.354;20.884;2022-09-09T07:27:57;11.33;;;5.87;;
19262;SDS011;9765;52.354;20.884;2022-09-09T07:30:23;11.07;;;6.20;;
19262;SDS011;9765;52.354;20.884;2022-09-09T07:32:52;13.97;;;6.40;;
19262;SDS011;9765;52.354;20.884;2022-09-09T07:35:18;10.57;;;6.60;;
19262;SDS011;9765;52.354;20.884;2022-09-09T07:37:45;15.87;;;7.00;;
19262;SDS011;9765;52.354;20.884;2022-09-09T07:40:12;14.50;;;6.83;;
19262;SDS011;9765;52.354;20.884;2022-09-09T07:42:40;12.83;;;7.00;;
19262;SDS011;9765;52.354;20.884;2022-09-09T07:45:06;13.17;;;7.83;;
19262;SDS011;9765;52.354;20.884;2022-09-09T07:47:37;14.03;;;7.57;;
19262;SDS011;9765;52.354;20.884;2022-09-09T07:50:08;14.80;;;7.77;;
19262;SDS011;9765;52.354;20.884;2022-09-09T07:52:42;11.83;;;6.23;;
19262;SDS011;9765;52.354;20.884;2022-09-09T07:55:09;10.90;;;7.03;;
19262;SDS011;9765;52.354;20.884;2022-09-09T07:57:38;12.93;;;7.20;;
19262;SDS011;9765;52.354;20.884;2022-09-09T08:00:05;13.03;;;7.50;;
19262;SDS011;9765;52.354;20.884;2022-09-09T08:02:32;14.77;;;8.10;;
19262;SDS011;9765;52.354;20.884;2022-09-09T08:04:59;12.33;;;6.70;;
19262;SDS011;9765;52.354;20.884;2022-09-09T08:07:27;17.27;;;8.53;;
19262;SDS011;9765;52.354;20.884;2022-09-09T08:09:54;13.17;;;8.10;;
19262;SDS011;9765;52.354;20.884;2022-09-09T08:12:22;16.53;;;8.60;;
19262;SDS011;9765;52.354;20.884;2022-09-09T08:14:50;13.03;;;7.57;;
19262;SDS011;9765;52.354;20.884;2022-09-09T08:17:20;13.77;;;7.97;;
19262;SDS011;9765;52.354;20.884;2022-09-09T08:19:47;14.83;;;7.83;;
19262;SDS011;9765;52.354;20.884;2022-09-09T08:22:14;14.20;;;8.20;;
19262;SDS011;9765;52.354;20.884;2022-09-09T08:24:42;16.67;;;8.80;;
19262;SDS011;9765;52.354;20.884;2022-09-09T08:27:08;15.70;;;9.43;;
19262;SDS011;9765;52.354;20.884;2022-09-09T08:29:35;18.07;;;9.60;;
19262;SDS011;9765;52.354;20.884;2022-09-09T08:32:03;22.67;;;9.90;;
19262;SDS011;9765;52.354;20.884;2022-09-09T08:34:30;15.27;;;8.70;;
19262;SDS011;9765;52.354;20.884;2022-09-09T08:36:57;15.97;;;9.30;;
19262;SDS011;9765;52.354;20.884;2022-09-09T08:39:23;16.53;;;9.43;;
19262;SDS011;9765;52.354;20.884;2022-09-09T08:44:45;14.23;;;8.90;;
19262;SDS011;9765;52.354;20.884;2022-09-09T08:47:22;16.20;;;9.27;;
19262;SDS011;9765;52.354;20.884;2022-09-09T08:50:01;17.20;;;10.40;;
19262;SDS011;9765;52.354;20.884;2022-09-09T08:52:36;17.63;;;9.47;;
19262;SDS011;9765;52.354;20.884;2022-09-09T08:55:11;16.17;;;9.93;;
19262;SDS011;9765;52.354;20.884;2022-09-09T08:57:48;17.63;;;9.70;;
19262;SDS011;9765;52.354;20.884;2022-09-09T09:00:17;16.47;;;9.67;;
19262;SDS011;9765;52.354;20.884;2022-09-09T09:02:46;16.87;;;9.63;;
19262;SDS011;9765;52.354;20.884;2022-09-09T09:05:23;14.90;;;9.30;;
19262;SDS011;9765;52.354;20.884;2022-09-09T09:07:58;20.53;;;10.43;;
19262;SDS011;9765;52.354;20.884;2022-09-09T09:10:38;20.83;;;11.43;;
19262;SDS011;9765;52.354;20.884;2022-09-09T09:13:14;18.03;;;11.37;;
19262;SDS011;9765;52.354;20.884;2022-09-09T09:15:46;20.47;;;11.63;;
19262;SDS011;9765;52.354;20.884;2022-09-09T09:18:18;17.10;;;10.50;;
19262;SDS011;9765;52.354;20.884;2022-09-09T09:20:48;19.40;;;10.57;;
19262;SDS011;9765;52.354;20.884;2022-09-09T09:23:21;20.47;;;11.47;;
19262;SDS011;9765;52.354;20.884;2022-09-09T09:25:49;21.47;;;11.93;;
19262;SDS011;9765;52.354;20.884;2022-09-09T09:28:20;22.50;;;12.13;;
19262;SDS011;9765;52.354;20.884;2022-09-09T09:30:52;26.13;;;13.07;;
19262;SDS011;9765;52.354;20.884;2022-09-09T09:33:23;19.73;;;11.20;;
19262;SDS011;9765;52.354;20.884;2022-09-09T09:35:53;19.53;;;12.17;;
19262;SDS011;9765;52.354;20.884;2022-09-09T09:38:20;23.40;;;12.43;;
19262;SDS011;9765;52.354;20.884;2022-09-09T09:40:49;21.93;;;12.43;;
19262;SDS011;9765;52.354;20.884;2022-09-09T09:43:23;25.37;;;13.97;;
19262;SDS011;9765;52.354;20.884;2022-09-09T09:45:52;25.07;;;13.83;;
19262;SDS011;9765;52.354;20.884;2022-09-09T09:48:19;26.77;;;14.57;;
19262;SDS011;9765;52.354;20.884;2022-09-09T09:50:46;26.87;;;13.07;;
19262;SDS011;9765;52.354;20.884;2022-09-09T09:53:17;32.83;;;15.03;;
19262;SDS011;9765;52.354;20.884;2022-09-09T09:55:56;27.77;;;14.87;;
19262;SDS011;9765;52.354;20.884;2022-09-09T09:58:27;25.33;;;13.03;;
19262;SDS011;9765;52.354;20.884;2022-09-09T10:00:59;33.43;;;15.07;;
19262;SDS011;9765;52.354;20.884;2022-09-09T10:03:27;24.77;;;13.33;;
19262;SDS011;9765;52.354;20.884;2022-09-09T10:05:55;24.60;;;14.03;;
19262;SDS011;9765;52.354;20.884;2022-09-09T10:08:22;29.73;;;15.63;;
19262;SDS011;9765;52.354;20.884;2022-09-09T10:10:56;27.17;;;15.30;;
19262;SDS011;9765;52.354;20.884;2022-09-09T10:13:39;28.20;;;14.97;;
19262;SDS011;9765;52.354;20.884;2022-09-09T10:16:19;27.07;;;14.77;;
19262;SDS011;9765;52.354;20.884;2022-09-09T10:18:59;27.83;;;14.63;;
19262;SDS011;9765;52.354;20.884;2022-09-09T10:21:42;33.47;;;17.43;;
19262;SDS011;9765;52.354;20.884;2022-09-09T10:24:33;27.43;;;16.17;;
19262;SDS011;9765;52.354;20.884;2022-09-09T10:27:18;31.17;;;16.77;;
19262;SDS011;9765;52.354;20.884;2022-09-09T10:32:45;35.70;;;17.37;;
19262;SDS011;9765;52.354;20.884;2022-09-09T10:35:27;30.67;;;16.87;;
19262;SDS011;9765;52.354;20.884;2022-09-09T10:38:11;33.60;;;17.23;;
19262;SDS011;9765;52.354;20.884;2022-09-09T10:40:42;34.40;;;18.60;;
19262;SDS011;9765;52.354;20.884;2022-09-09T10:43:33;33.90;;;17.80;;
19262;SDS011;9765;52.354;20.884;2022-09-09T10:46:09;32.13;;;17.10;;
19262;SDS011;9765;52.354;20.884;2022-09-09T10:48:50;28.47;;;13.07;;
19262;SDS011;9765;52.354;20.884;2022-09-09T10:51:28;30.07;;;14.73;;
19262;SDS011;9765;52.354;20.884;2022-09-09T10:54:09;32.83;;;17.73;;
19262;SDS011;9765;52.354;20.884;2022-09-09T10:56:49;29.63;;;16.10;;
19262;SDS011;9765;52.354;20.884;2022-09-09T10:59:25;30.83;;;16.13;;
19262;SDS011;9765;52.354;20.884;2022-09-09T11:01:57;35.40;;;17.57;;
19262;SDS011;9765;52.354;20.884;2022-09-09T11:04:29;33.90;;;17.43;;
19262;SDS011;9765;52.354;20.884;2022-09-09T11:07:02;28.10;;;16.47;;
19262;SDS011;9765;52.354;20.884;2022-09-09T11:09:35;32.13;;;15.87;;
19262;SDS011;9765;52.354;20.884;2022-09-09T11:12:05;33.97;;;18.97;;
19262;SDS011;9765;52.354;20.884;2022-09-09T11:14:39;28.50;;;17.00;;
19262;SDS011;9765;52.354;20.884;2022-09-09T11:17:12;30.37;;;16.93;;
19262;SDS011;9765;52.354;20.884;2022-09-09T11:19:42;36.43;;;18.60;;
19262;SDS011;9765;52.354;20.884;2022-09-09T11:22:16;36.17;;;18.37;;
19262;SDS011;9765;52.354;20.884;2022-09-09T11:24:50;32.67;;;17.90;;
19262;SDS011;9765;52.354;20.884;2022-09-09T11:27:25;36.53;;;18.57;;
19262;SDS011;9765;52.354;20.884;2022-09-09T11:30:06;35.47;;;18.20;;
19262;SDS011;9765;52.354;20.884;2022-09-09T11:35:42;41.53;;;20.43;;
19262;SDS011;9765;52.354;20.884;2022-09-09T11:38:22;40.87;;;20.90;;
19262;SDS011;9765;52.354;20.884;2022-09-09T11:40:56;34.03;;;20.23;;
19262;SDS011;9765;52.354;20.884;2022-09-09T11:43:27;39.27;;;19.77;;
19262;SDS011;9765;52.354;20.884;2022-09-09T11:45:57;37.13;;;19.80;;
19262;SDS011;9765;52.354;20.884;2022-09-09T11:48:31;41.10;;;22.87;;
19262;SDS011;9765;52.354;20.884;2022-09-09T11:51:01;39.00;;;20.57;;
19262;SDS011;9765;52.354;20.884;2022-09-09T11:53:33;39.80;;;20.40;;
19262;SDS011;9765;52.354;20.884;2022-09-09T11:56:11;38.27;;;20.03;;
19262;SDS011;9765;52.354;20.884;2022-09-09T11:58:43;41.03;;;20.50;;
19262;SDS011;9765;52.354;20.884;2022-09-09T12:01:27;38.37;;;21.00;;
19262;SDS011;9765;52.354;20.884;2022-09-09T12:04:22;48.67;;;23.40;;
19262;SDS011;9765;52.354;20.884;2022-09-09T12:06:56;43.87;;;21.80;;
19262;SDS011;9765;52.354;20.884;2022-09-09T12:09:27;43.60;;;21.37;;
19262;SDS011;9765;52.354;20.884;2022-09-09T12:12:06;44.60;;;23.10;;
19262;SDS011;9765;52.354;20.884;2022-09-09T12:14:35;43.57;;;21.50;;
19262;SDS011;9765;52.354;20.884;2022-09-09T12:17:17;44.20;;;23.30;;
19262;SDS011;9765;52.354;20.884;2022-09-09T12:19:47;40.40;;;22.17;;
19262;SDS011;9765;52.354;20.884;2022-09-09T12:22:28;39.80;;;21.27;;
19262;SDS011;9765;52.354;20.884;2022-09-09T12:25:03;44.90;;;23.83;;
19262;SDS011;9765;52.354;20.884;2022-09-09T12:27:42;42.17;;;22.97;;
19262;SDS011;9765;52.354;20.884;2022-09-09T12:30:19;46.23;;;23.33;;
19262;SDS011;9765;52.354;20.884;2022-09-09T12:32:48;46.70;;;25.33;;
19262;SDS011;9765;52.354;20.884;2022-09-09T12:35:28;44.93;;;25.03;;
19262;SDS011;9765;52.354;20.884;2022-09-09T12:37:56;43.63;;;22.40;;
19262;SDS011;9765;52.354;20.884;2022-09-09T12:40:26;49.83;;;23.80;;
19262;SDS011;9765;52.354;20.884;2022-09-09T12:42:54;48.00;;;22.93;;
19262;SDS011;9765;52.354;20.884;2022-09-09T12:45:21;45.73;;;24.50;;
19262;SDS011;9765;52.354;20.884;2022-09-09T12:47:51;54.23;;;25.30;;
19262;SDS011;9765;52.354;20.884;2022-09-09T12:50:22;49.03;;;23.40;;
19262;SDS011;9765;52.354;20.884;2022-09-09T12:52:53;52.17;;;26.73;;
19262;SDS011;9765;52.354;20.884;2022-09-09T12:55:24;48.37;;;22.33;;
19262;SDS011;9765;52.354;20.884;2022-09-09T12:57:55;55.87;;;26.00;;
19262;SDS011;9765;52.354;20.884;2022-09-09T13:00:22;57.20;;;26.90;;
19262;SDS011;9765;52.354;20.884;2022-09-09T13:02:52;53.20;;;26.63;;
19262;SDS011;9765;52.354;20.884;2022-09-09T13:05:22;48.17;;;23.13;;
19262;SDS011;9765;52.354;20.884;2022-09-09T13:07:50;52.03;;;25.07;;
19262;SDS011;9765;52.354;20.884;2022-09-09T13:10:22;60.90;;;26.73;;
19262;SDS011;9765;52.354;20.884;2022-09-09T13:12:52;53.30;;;26.47;;
19262;SDS011;9765;52.354;20.884;2022-09-09T13:15:20;54.50;;;26.87;;
19262;SDS011;9765;52.354;20.884;2022-09-09T13:17:53;60.30;;;27.13;;
19262;SDS011;9765;52.354;20.884;2022-09-09T13:20:22;49.77;;;23.73;;
19262;SDS011;9765;52.354;20.884;2022-09-09T13:22:50;54.63;;;24.23;;
19262;SDS011;9765;52.354;20.884;2022-09-09T13:25:20;45.60;;;23.57;;
19262;SDS011;9765;52.354;20.884;2022-09-09T13:27:52;49.87;;;24.30;;
19262;SDS011;9765;52.354;20.884;2022-09-09T13:30:26;55.40;;;26.00;;
19262;SDS011;9765;52.354;20.884;2022-09-09T13:35:47;52.33;;;25.67;;
19262;SDS011;9765;52.354;20.884;2022-09-09T13:38:16;51.70;;;24.47;;
19262;SDS011;9765;52.354;20.884;2022-09-09T13:40:52;54.70;;;25.40;;
19262;SDS011;9765;52.354;20.884;2022-09-09T13:43:22;51.27;;;22.90;;
19262;SDS011;9765;52.354;20.884;2022-09-09T13:45:54;48.30;;;22.73;;
19262;SDS011;9765;52.354;20.884;2022-09-09T13:48:23;45.53;;;21.83;;
19262;SDS011;9765;52.354;20.884;2022-09-09T13:50:54;49.90;;;22.67;;
19262;SDS011;9765;52.354;20.884;2022-09-09T13:53:22;52.20;;;23.03;;
19262;SDS011;9765;52.354;20.884;2022-09-09T13:55:48;57.97;;;26.47;;
19262;SDS011;9765;52.354;20.884;2022-09-09T13:58:20;49.90;;;23.13;;
19262;SDS011;9765;52.354;20.884;2022-09-09T14:00:47;51.23;;;23.03;;
19262;SDS011;9765;52.354;20.884;2022-09-09T14:03:14;47.47;;;22.33;;
19262;SDS011;9765;52.354;20.884;2022-09-09T14:05:43;52.00;;;24.47;;
19262;SDS011;9765;52.354;20.884;2022-09-09T14:08:11;53.63;;;23.97;;
19262;SDS011;9765;52.354;20.884;2022-09-09T14:10:47;55.03;;;24.40;;
19262;SDS011;9765;52.354;20.884;2022-09-09T14:13:14;58.43;;;25.97;;
19262;SDS011;9765;52.354;20.884;2022-09-09T14:15:42;60.43;;;26.60;;
19262;SDS011;9765;52.354;20.884;2022-09-09T14:18:11;56.83;;;24.50;;
19262;SDS011;9765;52.354;20.884;2022-09-09T14:20:41;69.97;;;27.60;;
19262;SDS011;9765;52.354;20.884;2022-09-09T14:23:09;73.63;;;27.10;;
19262;SDS011;9765;52.354;20.884;2022-09-09T14:25:39;62.27;;;27.60;;
19262;SDS011;9765;52.354;20.884;2022-09-09T14:28:07;65.40;;;27.47;;
19262;SDS011;9765;52.354;20.884;2022-09-09T14:30:36;69.77;;;29.10;;
19262;SDS011;9765;52.354;20.884;2022-09-09T14:33:05;58.07;;;24.97;;
19262;SDS011;9765;52.354;20.884;2022-09-09T14:35:33;68.30;;;26.77;;
19262;SDS011;9765;52.354;20.884;2022-09-09T14:38:01;58.13;;;24.93;;
19262;SDS011;9765;52.354;20.884;2022-09-09T14:40:28;62.23;;;26.80;;
19262;SDS011;9765;52.354;20.884;2022-09-09T14:42:54;63.70;;;25.63;;
19262;SDS011;9765;52.354;20.884;2022-09-09T14:45:22;66.33;;;26.17;;
19262;SDS011;9765;52.354;20.884;2022-09-09T14:47:50;61.83;;;25.50;;
19262;SDS011;9765;52.354;20.884;2022-09-09T14:50:18;56.70;;;23.13;;
19262;SDS011;9765;52.354;20.884;2022-09-09T14:52:45;60.93;;;24.60;;
19262;SDS011;9765;52.354;20.884;2022-09-09T14:55:11;58.60;;;23.83;;
19262;SDS011;9765;52.354;20.884;2022-09-09T14:57:39;59.77;;;24.33;;
19262;SDS011;9765;52.354;20.884;2022-09-09T15:00:06;58.07;;;22.73;;
19262;SDS011;9765;52.354;20.884;2022-09-09T15:02:34;53.37;;;22.73;;
19262;SDS011;9765;52.354;20.884;2022-09-09T15:05:03;68.30;;;28.10;;
19262;SDS011;9765;52.354;20.884;2022-09-09T15:07:32;55.50;;;24.83;;
19262;SDS011;9765;52.354;20.884;2022-09-09T15:09:59;52.10;;;23.03;;
19262;SDS011;9765;52.354;20.884;2022-09-09T15:12:25;61.03;;;27.40;;
19262;SDS011;9765;52.354;20.884;2022-09-09T15:14:53;57.70;;;25.93;;
19262;SDS011;9765;52.354;20.884;2022-09-09T15:17:20;69.53;;;28.47;;
19262;SDS011;9765;52.354;20.884;2022-09-09T15:19:49;65.43;;;29.53;;
19262;SDS011;9765;52.354;20.884;2022-09-09T15:22:16;63.50;;;28.63;;
19262;SDS011;9765;52.354;20.884;2022-09-09T15:24:46;58.60;;;26.67;;
19262;SDS011;9765;52.354;20.884;2022-09-09T15:27:15;57.57;;;25.93;;
19262;SDS011;9765;52.354;20.884;2022-09-09T15:29:43;64.83;;;29.33;;
19262;SDS011;9765;52.354;20.884;2022-09-09T15:32:10;51.40;;;23.93;;
19262;SDS011;9765;52.354;20.884;2022-09-09T15:34:36;49.10;;;23.47;;
19262;SDS011;9765;52.354;20.884;2022-09-09T15:37:03;49.33;;;23.33;;
19262;SDS011;9765;52.354;20.884;2022-09-09T15:39:31;44.43;;;20.43;;
19262;SDS011;9765;52.354;20.884;2022-09-09T15:42:00;51.23;;;22.57;;
19262;SDS011;9765;52.354;20.884;2022-09-09T15:44:27;45.40;;;21.00;;
19262;SDS011;9765;52.354;20.884;2022-09-09T15:46:53;55.73;;;22.53;;
19262;SDS011;9765;52.354;20.884;2022-09-09T15:49:20;45.17;;;20.73;;
19262;SDS011;9765;52.354;20.884;2022-09-09T15:51:50;50.93;;;22.40;;
19262;SDS011;9765;52.354;20.884;2022-09-09T15:54:19;53.33;;;22.93;;
19262;SDS011;9765;52.354;20.884;2022-09-09T15:56:50;49.30;;;20.00;;
19262;SDS011;9765;52.354;20.884;2022-09-09T15:59:21;48.23;;;22.83;;
19262;SDS011;9765;52.354;20.884;2022-09-09T16:01:48;56.83;;;24.43;;
19262;SDS011;9765;52.354;20.884;2022-09-09T16:04:16;52.83;;;23.40;;
19262;SDS011;9765;52.354;20.884;2022-09-09T16:06:48;53.77;;;23.50;;
19262;SDS011;9765;52.354;20.884;2022-09-09T16:09:15;55.40;;;23.43;;
19262;SDS011;9765;52.354;20.884;2022-09-09T16:11:41;46.87;;;23.03;;
19262;SDS011;9765;52.354;20.884;2022-09-09T16:14:08;47.97;;;21.13;;
19262;SDS011;9765;52.354;20.884;2022-09-09T16:16:37;44.27;;;21.83;;
19262;SDS011;9765;52.354;20.884;2022-09-09T16:19:05;48.27;;;19.33;;
19262;SDS011;9765;52.354;20.884;2022-09-09T16:21:37;41.67;;;20.30;;
19262;SDS011;9765;52.354;20.884;2022-09-09T16:24:06;53.73;;;22.33;;
19262;SDS011;9765;52.354;20.884;2022-09-09T16:26:34;40.60;;;18.57;;
